KPUW

Pullman / Moscow Regional Airport

Pullman/Moscow, Washington, USA
KPUW 141737Z 1418/1518 11015G20KT P6SM SCT120 OVC200 FM142100 11013G19KT P6SM SCT120 BKN150 OVC200 WS020/21040KT FM150400 14010KT 6SM -SHRA BR BKN025 OVC040 WS020/23040KT FM150700 22021G29KT P6SM BKN020 OVC050 FM151300 24012KT P6SM BKN018
Issued Valid From Valid To
Dec-14 @ 17:37 UTC
(5 hours ago)
Dec-14 @ 18:00 UTC
(4 hours ago)
Dec-15 @ 18:00 UTC
(in 20 hours)
Expired Click to View Dec-14 @ 18:00 to Dec-14 @ 21:00
KPUW 141737Z 1418/1518 11015G20KT P6SM SCT120 OVC200
Wind Visibility Clouds
110° at 15 knots
 Gusting to 20 knots
Greater than 6 miles
  • Scattered at 12,000' AGL
  • Overcast at 20,000' AGL
From Dec-14 @ 21:00 to Dec-15 @ 04:00
FM142100 11013G19KT P6SM SCT120 BKN150 OVC200 WS020/21040KT
Wind Visibility Clouds
110° at 13 knots
 Gusting to 19 knots
 Wind shear 2,000' AGL from 210° at 40 knots
Greater than 6 miles
  • Scattered at 12,000' AGL
  • Broken at 15,000' AGL
  • Overcast at 20,000' AGL
From Dec-15 @ 04:00 to Dec-15 @ 07:00
FM150400 14010KT 6SM -SHRA BR BKN025 OVC040 WS020/23040KT
Wind Visibility Clouds Conditions
140° at 10 knots
 Wind shear 2,000' AGL from 230° at 40 knots
6 miles
  • Broken at 2,500' AGL
  • Overcast at 4,000' AGL
  • Light Rain
  • Mist
From Dec-15 @ 07:00 to Dec-15 @ 13:00
FM150700 22021G29KT P6SM BKN020 OVC050
Wind Visibility Clouds
220° at 21 knots
 Gusting to 29 knots
Greater than 6 miles
  • Broken at 2,000' AGL
  • Overcast at 5,000' AGL
From Dec-15 @ 13:00 to Dec-15 @ 18:00
FM151300 24012KT P6SM BKN018
Wind Visibility Clouds
240° at 12 knots Greater than 6 miles
  • Broken at 1,800' AGL
KPUW 141737Z 1418/1518 11015G20KT P6SM SCT120 OVC200 FM142100 11013G19KT P6SM SCT120 BKN150 OVC200 WS020/21040KT FM150400 14010KT 6SM -SHRA BR BKN025 OVC040 WS020/23040KT FM150700 22021G29KT P6SM BKN020 OVC050 FM151300 24012KT P6SM BKN018
Issued Dec-14 @ 17:37 UTC
(5 hours ago)
Valid From Dec-14 @ 18:00 UTC
(4 hours ago)
Valid To Dec-15 @ 18:00 UTC
(in 20 hours)
Dec-14 @ 18:00 - Dec-14 @ 21:00
Wind Visibility
110° at 15 knots
 Gusting to 20 knots
Greater than 6 miles
Clouds
  • Scattered at 12,000' AGL
  • Overcast at 20,000' AGL
From Dec-14 @ 21:00 - Dec-15 @ 04:00
Wind Visibility
110° at 13 knots
 Gusting to 19 knots
Greater than 6 miles
Clouds
  • Scattered at 12,000' AGL
  • Broken at 15,000' AGL
  • Overcast at 20,000' AGL
From Dec-15 @ 04:00 - Dec-15 @ 07:00
Wind Visibility
140° at 10 knots 6 miles
Clouds
  • Broken at 2,500' AGL
  • Overcast at 4,000' AGL
Conditions
  • Light Rain
  • Mist
From Dec-15 @ 07:00 - Dec-15 @ 13:00
Wind Visibility
220° at 21 knots
 Gusting to 29 knots
Greater than 6 miles
Clouds
  • Broken at 2,000' AGL
  • Overcast at 5,000' AGL
From Dec-15 @ 13:00 - Dec-15 @ 18:00
Wind Visibility
240° at 12 knots Greater than 6 miles
Clouds
  • Broken at 1,800' AGL